Time;durP1;ratioP1;P1;durP2;ratioP2;P2;SDS_P1;SDS_P2;PMS_P1;PMS_P2;Temp;Humidity;BMP_temperature;BMP_pressure;BME280_temperature;BME280_humidity;BME280_pressure;Samples;Min_cycle;Max_cycle;Signal;HPM_P1;HPM_P2
2021/12/22 00:00:55;;;;;;;0.10;0.10;;;;;;;;;;4921002;29;20395;-89
2021/12/22 00:03:22;;;;;;;0.10;0.10;;;;;;;;;;4936723;29;20042;-88
2021/12/22 00:05:50;;;;;;;0.10;0.10;;;;;;;;;;4936773;29;20428;-89
2021/12/22 00:08:17;;;;;;;0.10;0.10;;;;;;;;;;4937007;29;20472;-89
2021/12/22 00:10:43;;;;;;;0.10;0.10;;;;;;;;;;4920974;29;20043;-89
2021/12/22 00:13:09;;;;;;;0.10;0.10;;;;;;;;;;4936700;29;20043;-89
2021/12/22 00:15:35;;;;;;;0.10;0.10;;;;;;;;;;4936645;29;20043;-89
2021/12/22 00:18:01;;;;;;;0.10;0.10;;;;;;;;;;4920596;29;20074;-89
2021/12/22 00:20:27;;;;;;;0.10;0.10;;;;;;;;;;4936502;29;20071;-89
2021/12/22 00:22:53;;;;;;;0.10;0.10;;;;;;;;;;4936339;29;20554;-88
2021/12/22 00:25:24;;;;;;;0.20;0.20;;;;;;;;;;4920623;29;20376;-88
2021/12/22 00:27:50;;;;;;;0.10;0.10;;;;;;;;;;4937225;29;20051;-89
2021/12/22 00:30:16;;;;;;;0.00;0.00;;;;;;;;;;4936738;29;20439;-88
2021/12/22 00:32:50;;;;;;;0.10;0.10;;;;;;;;;;4952413;28;20043;-89
2021/12/22 00:35:17;;;;;;;0.10;0.10;;;;;;;;;;4921822;29;20047;-89
2021/12/22 00:37:43;;;;;;;0.10;0.10;;;;;;;;;;4920678;29;20059;-89
2021/12/22 00:40:09;;;;;;;0.10;0.10;;;;;;;;;;4920575;29;20385;-89
2021/12/22 00:42:35;;;;;;;0.10;0.10;;;;;;;;;;4920599;29;20036;-89
2021/12/22 00:45:01;;;;;;;0.10;0.10;;;;;;;;;;4936515;29;20058;-89
2021/12/22 00:47:28;;;;;;;0.10;0.10;;;;;;;;;;4936594;29;20047;-89
2021/12/22 00:49:55;;;;;;;0.10;0.10;;;;;;;;;;4952904;29;20043;-89
2021/12/22 00:52:21;;;;;;;0.10;0.10;;;;;;;;;;4920591;29;20035;-89
2021/12/22 00:54:47;;;;;;;0.10;0.10;;;;;;;;;;4936370;29;20039;-89
2021/12/22 00:57:15;;;;;;;0.10;0.10;;;;;;;;;;4936523;29;20043;-89
2021/12/22 00:59:41;;;;;;;0.10;0.10;;;;;;;;;;4923688;29;20054;-89
2021/12/22 01:02:08;;;;;;;0.10;0.10;;;;;;;;;;4940099;29;20392;-88
2021/12/22 01:04:34;;;;;;;0.10;0.10;;;;;;;;;;4940051;29;20519;-89
2021/12/22 01:07:00;;;;;;;0.10;0.10;;;;;;;;;;4924044;29;20046;-89
2021/12/22 01:09:26;;;;;;;0.10;0.10;;;;;;;;;;4924281;29;20057;-89
2021/12/22 01:11:52;;;;;;;0.10;0.10;;;;;;;;;;4939382;29;20138;-88
2021/12/22 01:14:18;;;;;;;0.10;0.10;;;;;;;;;;4955550;29;20043;-88
2021/12/22 01:16:48;;;;;;;0.10;0.10;;;;;;;;;;4955422;29;20055;-88
2021/12/22 01:19:18;;;;;;;0.10;0.10;;;;;;;;;;4924351;29;20506;-90
2021/12/22 01:21:49;;;;;;;0.10;0.10;;;;;;;;;;4924149;28;20046;-89
2021/12/22 01:24:22;;;;;;;0.10;0.10;;;;;;;;;;4940257;29;20047;-89
2021/12/22 01:26:52;;;;;;;0.10;0.10;;;;;;;;;;4924786;29;20035;-89
2021/12/22 01:29:19;;;;;;;0.10;0.10;;;;;;;;;;4939170;29;20039;-89
2021/12/22 01:31:45;;;;;;;0.10;0.10;;;;;;;;;;4939473;28;20079;-89
2021/12/22 01:34:11;;;;;;;0.10;0.10;;;;;;;;;;4939197;29;20050;-90
2021/12/22 01:36:37;;;;;;;0.10;0.10;;;;;;;;;;4923518;29;20119;-89
2021/12/22 01:39:03;;;;;;;1.77;0.35;;;;;;;;;;4923421;29;20063;-90
2021/12/22 01:41:29;;;;;;;0.10;0.10;;;;;;;;;;4923660;28;20043;-89
2021/12/22 01:43:55;;;;;;;0.13;0.13;;;;;;;;;;4939178;29;20131;-90
2021/12/22 01:49:11;;;;;;;0.10;0.10;;;;;;;;;;4940517;29;20043;-90
2021/12/22 01:51:46;;;;;;;0.10;0.10;;;;;;;;;;4939418;28;20456;-90
2021/12/22 01:54:13;;;;;;;0.10;0.10;;;;;;;;;;4954626;29;20051;-90
2021/12/22 01:56:43;;;;;;;0.10;0.10;;;;;;;;;;4939051;29;20047;-90
2021/12/22 01:59:09;;;;;;;0.10;0.10;;;;;;;;;;4923362;29;20043;-89
2021/12/22 02:01:35;;;;;;;0.10;0.10;;;;;;;;;;4923080;28;20043;-89
2021/12/22 02:04:02;;;;;;;0.10;0.10;;;;;;;;;;4922997;29;20075;-89
2021/12/22 02:06:28;;;;;;;0.10;0.10;;;;;;;;;;4938755;29;20098;-89
2021/12/22 02:08:55;;;;;;;0.10;0.10;;;;;;;;;;4922772;29;20035;-89
2021/12/22 02:11:21;;;;;;;0.10;0.10;;;;;;;;;;4953324;28;20114;-89
2021/12/22 02:13:52;;;;;;;0.10;0.10;;;;;;;;;;4922768;29;20113;-89
2021/12/22 02:16:25;;;;;;;0.10;0.10;;;;;;;;;;4939214;29;20051;-90
2021/12/22 02:18:53;;;;;;;0.10;0.10;;;;;;;;;;4923773;29;20190;-91
2021/12/22 02:21:20;;;;;;;0.10;0.10;;;;;;;;;;4922742;29;20553;-90
2021/12/22 02:23:46;;;;;;;0.10;0.10;;;;;;;;;;4922662;29;20039;-90
2021/12/22 02:26:17;;;;;;;0.10;0.10;;;;;;;;;;4922707;29;20043;-90
2021/12/22 02:28:47;;;;;;;0.10;0.10;;;;;;;;;;4923162;29;20038;-90
2021/12/22 02:31:16;;;;;;;0.10;0.10;;;;;;;;;;4938770;29;20178;-90
2021/12/22 02:33:45;;;;;;;0.10;0.10;;;;;;;;;;4922798;29;20049;-91
2021/12/22 02:36:22;;;;;;;0.10;0.10;;;;;;;;;;4923049;29;20138;-90
2021/12/22 02:38:50;;;;;;;0.30;0.30;;;;;;;;;;4939662;29;20483;-90
2021/12/22 02:41:16;;;;;;;0.10;0.10;;;;;;;;;;4937785;29;20519;-90
2021/12/22 02:43:46;;;;;;;0.10;0.10;;;;;;;;;;4937831;29;20043;-90
2021/12/22 02:46:12;;;;;;;0.10;0.10;;;;;;;;;;4938639;29;20491;-90
2021/12/22 02:48:38;;;;;;;0.10;0.10;;;;;;;;;;4938428;29;20042;-91
2021/12/22 02:51:04;;;;;;;0.10;0.10;;;;;;;;;;4922480;29;20051;-90
2021/12/22 02:53:40;;;;;;;0.10;0.10;;;;;;;;;;4937952;29;20058;-90
2021/12/22 02:56:26;;;;;;;0.10;0.10;;;;;;;;;;4939591;29;20159;-90
2021/12/22 03:01:38;;;;;;;0.15;0.15;;;;;;;;;;4938226;29;20066;-90
2021/12/22 03:04:09;;;;;;;0.10;0.10;;;;;;;;;;4937962;29;20061;-90
2021/12/22 03:06:40;;;;;;;0.10;0.10;;;;;;;;;;4953768;29;20513;-90
2021/12/22 03:09:16;;;;;;;0.10;0.10;;;;;;;;;;4938301;29;20487;-89
2021/12/22 03:11:42;;;;;;;0.10;0.10;;;;;;;;;;4937639;28;20150;-90
2021/12/22 03:14:08;;;;;;;0.10;0.10;;;;;;;;;;4922046;29;20498;-91
2021/12/22 03:16:34;;;;;;;0.10;0.10;;;;;;;;;;4937838;29;20509;-89
2021/12/22 03:19:00;;;;;;;0.10;0.10;;;;;;;;;;4953680;29;20047;-88
2021/12/22 03:21:26;;;;;;;0.10;0.10;;;;;;;;;;4937315;28;20113;-89
2021/12/22 03:23:56;;;;;;;0.10;0.10;;;;;;;;;;4937455;29;20491;-90
2021/12/22 03:26:23;;;;;;;0.10;0.10;;;;;;;;;;4922380;29;20126;-90
2021/12/22 03:28:49;;;;;;;0.10;0.10;;;;;;;;;;4937534;29;20067;-90
2021/12/22 03:31:15;;;;;;;0.10;0.10;;;;;;;;;;4921435;29;20071;-89
2021/12/22 03:33:42;;;;;;;0.10;0.10;;;;;;;;;;4937144;29;20130;-89
2021/12/22 03:36:08;;;;;;;0.10;0.10;;;;;;;;;;4921864;29;20117;-89
2021/12/22 03:38:35;;;;;;;0.10;0.10;;;;;;;;;;4936889;29;20163;-88
2021/12/22 03:41:01;;;;;;;0.10;0.10;;;;;;;;;;4952763;29;20043;-89
2021/12/22 03:43:27;;;;;;;0.10;0.10;;;;;;;;;;4952662;28;20035;-89
2021/12/22 03:45:53;;;;;;;0.10;0.10;;;;;;;;;;4952679;29;20071;-89
2021/12/22 03:48:19;;;;;;;0.10;0.10;;;;;;;;;;4921054;29;20071;-89
2021/12/22 03:50:45;;;;;;;0.10;0.10;;;;;;;;;;4921164;29;20489;-89
2021/12/22 03:53:12;;;;;;;0.10;0.10;;;;;;;;;;4936622;29;20078;-89
2021/12/22 03:55:38;;;;;;;0.10;0.10;;;;;;;;;;4937009;29;20047;-88
2021/12/22 03:58:04;;;;;;;0.10;0.10;;;;;;;;;;4952430;29;20053;-89
2021/12/22 04:00:30;;;;;;;0.20;0.20;;;;;;;;;;4936794;29;20134;-89
2021/12/22 04:02:57;;;;;;;0.10;0.10;;;;;;;;;;4920944;29;20046;-90
2021/12/22 04:05:23;;;;;;;0.10;0.10;;;;;;;;;;4952719;29;20414;-90
2021/12/22 04:07:49;;;;;;;0.10;0.10;;;;;;;;;;4936579;29;20042;-90
2021/12/22 04:10:20;;;;;;;0.10;0.10;;;;;;;;;;4936902;29;20109;-90
2021/12/22 04:12:50;;;;;;;0.20;0.20;;;;;;;;;;4952798;28;20122;-89
2021/12/22 04:15:16;;;;;;;0.10;0.10;;;;;;;;;;4936629;29;20487;-89
2021/12/22 04:17:42;;;;;;;0.10;0.10;;;;;;;;;;4936801;29;20035;-90
2021/12/22 04:20:08;;;;;;;0.10;0.10;;;;;;;;;;4952570;29;20514;-90
2021/12/22 04:22:34;;;;;;;0.10;0.10;;;;;;;;;;4936416;29;20040;-90
2021/12/22 04:25:00;;;;;;;0.10;0.10;;;;;;;;;;4936579;29;20105;-90
2021/12/22 04:27:26;;;;;;;0.10;0.10;;;;;;;;;;4936713;29;20050;-90
2021/12/22 04:29:52;;;;;;;0.10;0.10;;;;;;;;;;4952515;29;20039;-89
2021/12/22 04:32:18;;;;;;;0.10;0.10;;;;;;;;;;4936405;28;20455;-90
2021/12/22 04:34:44;;;;;;;0.10;0.10;;;;;;;;;;4923753;29;20043;-90
2021/12/22 04:37:10;;;;;;;0.10;0.10;;;;;;;;;;4924661;29;20054;-90
2021/12/22 04:39:35;;;;;;;0.10;0.10;;;;;;;;;;4925011;29;20072;-91
2021/12/22 04:42:01;;;;;;;0.10;0.10;;;;;;;;;;4940376;29;20075;-91
2021/12/22 04:44:27;;;;;;;0.10;0.10;;;;;;;;;;4924901;29;20047;-90
2021/12/22 04:46:53;;;;;;;0.10;0.10;;;;;;;;;;4924218;29;20039;-89
2021/12/22 04:49:19;;;;;;;0.10;0.10;;;;;;;;;;4939894;29;20050;-89
2021/12/22 04:51:51;;;;;;;0.10;0.10;;;;;;;;;;4955882;28;20062;-89
2021/12/22 04:54:29;;;;;;;0.10;0.10;;;;;;;;;;4940891;29;20491;-89
2021/12/22 04:56:57;;;;;;;0.10;0.10;;;;;;;;;;4925905;29;20054;-89
2021/12/22 04:59:22;;;;;;;0.10;0.10;;;;;;;;;;4924274;29;20134;-90
2021/12/22 05:01:48;;;;;;;0.10;0.10;;;;;;;;;;4940049;29;20130;-90
2021/12/22 05:04:14;;;;;;;0.10;0.10;;;;;;;;;;4924337;29;20043;-91
2021/12/22 05:06:40;;;;;;;0.10;0.10;;;;;;;;;;4924411;29;20035;-91
2021/12/22 05:09:07;;;;;;;0.10;0.10;;;;;;;;;;4924085;29;20050;-90
2021/12/22 05:11:33;;;;;;;0.00;0.00;;;;;;;;;;4923998;28;20050;-90
2021/12/22 05:13:59;;;;;;;0.10;0.10;;;;;;;;;;4923833;29;20134;-90
2021/12/22 05:16:25;;;;;;;0.10;0.10;;;;;;;;;;4939745;29;20039;-90
2021/12/22 05:18:56;;;;;;;0.10;0.10;;;;;;;;;;4940147;29;20098;-91
2021/12/22 05:21:22;;;;;;;0.10;0.10;;;;;;;;;;4924570;28;20051;-91
2021/12/22 05:23:52;;;;;;;0.10;0.10;;;;;;;;;;4939475;29;20043;-90
2021/12/22 05:26:18;;;;;;;0.10;0.10;;;;;;;;;;4939623;29;20509;-90
2021/12/22 05:28:44;;;;;;;0.10;0.10;;;;;;;;;;4923996;29;20122;-90
2021/12/22 05:31:10;;;;;;;0.10;0.10;;;;;;;;;;4939684;29;20082;-90
2021/12/22 05:33:36;;;;;;;0.10;0.10;;;;;;;;;;4939814;29;20039;-89
2021/12/22 05:36:02;;;;;;;0.10;0.10;;;;;;;;;;4939389;29;20039;-89
2021/12/22 05:38:28;;;;;;;0.10;0.10;;;;;;;;;;4939164;29;20142;-90
2021/12/22 05:40:54;;;;;;;0.10;0.10;;;;;;;;;;4939135;29;20448;-89
2021/12/22 05:43:20;;;;;;;0.10;0.10;;;;;;;;;;4923269;29;20050;-90
2021/12/22 05:45:46;;;;;;;0.10;0.10;;;;;;;;;;4922133;29;20035;-90
2021/12/22 05:48:12;;;;;;;0.10;0.10;;;;;;;;;;4939612;29;20093;-91
2021/12/22 05:50:38;;;;;;;0.20;0.20;;;;;;;;;;4939335;29;20130;-90
2021/12/22 05:53:04;;;;;;;0.10;0.10;;;;;;;;;;4923267;29;20054;-91
2021/12/22 05:55:30;;;;;;;0.10;0.10;;;;;;;;;;4923384;29;20054;-90
2021/12/22 05:57:56;;;;;;;0.10;0.10;;;;;;;;;;4923216;29;20114;-91
2021/12/22 06:00:22;;;;;;;0.10;0.10;;;;;;;;;;4923168;29;20106;-91
2021/12/22 06:02:48;;;;;;;0.10;0.10;;;;;;;;;;4939070;29;20039;-90
2021/12/22 06:05:14;;;;;;;0.10;0.10;;;;;;;;;;4923336;29;20511;-89
2021/12/22 06:07:40;;;;;;;0.10;0.10;;;;;;;;;;4923003;29;20146;-90
2021/12/22 06:10:06;;;;;;;0.10;0.10;;;;;;;;;;4938727;29;20039;-89
2021/12/22 06:12:32;;;;;;;0.10;0.10;;;;;;;;;;4938535;29;20069;-90
2021/12/22 06:14:58;;;;;;;0.10;0.10;;;;;;;;;;4922733;29;20542;-90
2021/12/22 06:17:24;;;;;;;0.10;0.10;;;;;;;;;;4938442;29;20077;-90
2021/12/22 06:19:50;;;;;;;0.10;0.10;;;;;;;;;;4938321;29;20043;-89
2021/12/22 06:22:16;;;;;;;0.10;0.10;;;;;;;;;;4954688;28;20082;-90
2021/12/22 06:24:42;;;;;;;0.10;0.10;;;;;;;;;;4922886;29;20100;-90
2021/12/22 06:27:08;;;;;;;0.10;0.10;;;;;;;;;;4938351;29;20039;-90
2021/12/22 06:29:34;;;;;;;0.10;0.10;;;;;;;;;;4938455;29;20507;-90
2021/12/22 06:32:00;;;;;;;0.10;0.10;;;;;;;;;;4938182;29;20050;-90
2021/12/22 06:34:26;;;;;;;0.10;0.10;;;;;;;;;;4938203;29;20045;-91
2021/12/22 06:36:52;;;;;;;0.10;0.10;;;;;;;;;;4922987;29;20110;-90
2021/12/22 06:39:18;;;;;;;0.10;0.10;;;;;;;;;;4922543;29;20479;-91
2021/12/22 06:41:44;;;;;;;0.10;0.10;;;;;;;;;;4922283;28;20049;-90
2021/12/22 06:44:10;;;;;;;0.10;0.10;;;;;;;;;;4938205;29;20043;-90
2021/12/22 06:46:36;;;;;;;0.22;0.20;;;;;;;;;;4938311;29;20090;-91
2021/12/22 06:49:02;;;;;;;0.10;0.10;;;;;;;;;;4938518;29;20506;-89
2021/12/22 06:51:28;;;;;;;0.10;0.10;;;;;;;;;;4937973;28;20043;-90
2021/12/22 06:53:54;;;;;;;0.10;0.10;;;;;;;;;;4937855;29;20047;-90
2021/12/22 06:56:20;;;;;;;0.10;0.10;;;;;;;;;;4921555;29;20082;-90
2021/12/22 06:58:46;;;;;;;0.20;0.20;;;;;;;;;;4921994;29;20050;-89
2021/12/22 07:01:17;;;;;;;0.10;0.10;;;;;;;;;;4921898;29;20043;-90
2021/12/22 07:03:43;;;;;;;0.10;0.10;;;;;;;;;;4937625;29;20075;-89
2021/12/22 07:06:09;;;;;;;0.10;0.10;;;;;;;;;;4921975;29;20039;-89
2021/12/22 07:08:35;;;;;;;0.35;0.35;;;;;;;;;;4937687;29;20043;-89
2021/12/22 07:11:01;;;;;;;0.10;0.10;;;;;;;;;;4921534;29;20079;-88
2021/12/22 07:13:27;;;;;;;0.10;0.10;;;;;;;;;;4937287;29;20049;-90
2021/12/22 07:15:53;;;;;;;0.10;0.10;;;;;;;;;;4937890;29;20043;-90
2021/12/22 07:18:19;;;;;;;0.10;0.10;;;;;;;;;;4938136;29;20348;-91
2021/12/22 07:20:45;;;;;;;0.10;0.10;;;;;;;;;;4921782;29;20415;-91
2021/12/22 07:23:11;;;;;;;0.10;0.10;;;;;;;;;;4937835;29;20032;-92
2021/12/22 07:25:37;;;;;;;0.10;0.10;;;;;;;;;;4922210;29;20046;-91
2021/12/22 07:28:03;;;;;;;0.10;0.10;;;;;;;;;;4938236;29;20045;-93
2021/12/22 07:30:29;;;;;;;0.10;0.10;;;;;;;;;;4937435;29;20069;-90
2021/12/22 07:32:55;;;;;;;0.10;0.10;;;;;;;;;;4937107;29;20121;-90
2021/12/22 07:35:30;;;;;;;0.10;0.10;;;;;;;;;;4921977;29;20074;-90
2021/12/22 07:38:15;;;;;;;0.10;0.10;;;;;;;;;;4952917;29;20055;-91
2021/12/22 07:40:41;;;;;;;0.10;0.10;;;;;;;;;;4953238;29;20488;-89
2021/12/22 07:43:08;;;;;;;0.10;0.10;;;;;;;;;;4952915;28;20058;-90
2021/12/22 07:45:34;;;;;;;0.10;0.10;;;;;;;;;;4937157;29;20491;-88
2021/12/22 07:48:00;;;;;;;0.93;0.75;;;;;;;;;;4936795;29;20502;-90
2021/12/22 07:50:26;;;;;;;0.10;0.10;;;;;;;;;;4937248;29;20047;-89
2021/12/22 07:52:52;;;;;;;0.10;0.10;;;;;;;;;;4921516;29;20049;-88
2021/12/22 07:55:18;;;;;;;0.10;0.10;;;;;;;;;;4936743;29;20039;-91
2021/12/22 07:57:44;;;;;;;0.10;0.10;;;;;;;;;;4936855;29;20407;-90
2021/12/22 08:00:10;;;;;;;0.10;0.10;;;;;;;;;;4936809;29;20051;-88
2021/12/22 08:02:37;;;;;;;0.10;0.10;;;;;;;;;;4952565;28;20039;-89
2021/12/22 08:05:03;;;;;;;0.10;0.10;;;;;;;;;;4921109;29;20194;-90
2021/12/22 08:07:29;;;;;;;0.10;0.10;;;;;;;;;;4920658;29;20043;-88
2021/12/22 08:09:55;;;;;;;0.10;0.10;;;;;;;;;;4951286;29;20495;-92
2021/12/22 08:12:21;;;;;;;0.10;0.10;;;;;;;;;;4921011;29;20050;-90
2021/12/22 08:14:47;;;;;;;0.10;0.10;;;;;;;;;;4920400;29;20043;-93
2021/12/22 08:17:13;;;;;;;0.10;0.10;;;;;;;;;;4920823;29;20499;-89
2021/12/22 08:19:41;;;;;;;0.10;0.10;;;;;;;;;;4920395;29;20070;-89
2021/12/22 08:22:07;;;;;;;0.13;0.13;;;;;;;;;;4936476;29;20062;-87
2021/12/22 08:24:33;;;;;;;0.13;0.13;;;;;;;;;;4936361;29;20077;-88
2021/12/22 08:26:59;;;;;;;0.10;0.10;;;;;;;;;;4936284;29;20075;-87
2021/12/22 08:29:25;;;;;;;0.10;0.10;;;;;;;;;;4936233;29;20065;-88
2021/12/22 08:31:51;;;;;;;0.10;0.10;;;;;;;;;;4952159;28;20044;-88
2021/12/22 08:34:24;;;;;;;0.10;0.10;;;;;;;;;;4936053;29;20488;-88
2021/12/22 08:39:34;;;;;;;0.10;0.10;;;;;;;;;;4938773;29;20058;-88
2021/12/22 08:42:00;;;;;;;0.10;0.10;;;;;;;;;;4935967;29;20460;-88
2021/12/22 08:44:26;;;;;;;0.10;0.10;;;;;;;;;;4952207;29;20123;-87
2021/12/22 08:46:52;;;;;;;0.10;0.10;;;;;;;;;;4920320;29;20039;-87
2021/12/22 08:49:19;;;;;;;0.10;0.10;;;;;;;;;;4936341;29;20410;-86
2021/12/22 08:51:45;;;;;;;0.35;0.35;;;;;;;;;;4936303;28;20043;-87
2021/12/22 08:54:11;;;;;;;0.20;0.20;;;;;;;;;;4935963;29;20073;-84
2021/12/22 08:56:37;;;;;;;0.10;0.10;;;;;;;;;;4936150;29;20043;-84
2021/12/22 08:59:04;;;;;;;0.10;0.10;;;;;;;;;;4952480;29;20154;-88
2021/12/22 09:01:30;;;;;;;0.10;0.10;;;;;;;;;;4940455;28;20054;-88
2021/12/22 09:03:56;;;;;;;0.10;0.10;;;;;;;;;;4925116;29;20309;-91
2021/12/22 09:06:22;;;;;;;0.00;0.00;;;;;;;;;;4925476;29;20043;-93
2021/12/22 09:08:50;;;;;;;0.10;0.10;;;;;;;;;;4926278;29;20046;-91
2021/12/22 09:11:16;;;;;;;0.10;0.10;;;;;;;;;;4924805;29;20039;-91
2021/12/22 09:13:42;;;;;;;0.20;0.20;;;;;;;;;;4920467;29;20050;-91
2021/12/22 09:16:08;;;;;;;0.32;0.32;;;;;;;;;;4921024;29;20051;-92
2021/12/22 09:18:34;;;;;;;0.00;0.00;;;;;;;;;;4920689;29;20043;-91
2021/12/22 09:21:01;;;;;;;0.10;0.10;;;;;;;;;;4923055;29;20051;-90
2021/12/22 09:23:27;;;;;;;0.10;0.10;;;;;;;;;;4923693;29;20039;-89
2021/12/22 09:25:53;;;;;;;0.00;0.00;;;;;;;;;;4923756;29;20098;-91
2021/12/22 09:28:19;;;;;;;0.00;0.00;;;;;;;;;;4923561;29;20039;-90
2021/12/22 09:30:45;;;;;;;0.10;0.10;;;;;;;;;;4923493;29;20039;-90
2021/12/22 09:33:13;;;;;;;0.10;0.10;;;;;;;;;;4939473;29;20073;-91
2021/12/22 09:35:39;;;;;;;0.05;0.05;;;;;;;;;;4923775;29;20043;-91
2021/12/22 09:38:06;;;;;;;0.10;0.10;;;;;;;;;;4923477;29;20059;-90
2021/12/22 09:40:32;;;;;;;0.00;0.00;;;;;;;;;;4923707;29;20051;-91
2021/12/22 09:42:58;;;;;;;0.10;0.10;;;;;;;;;;4923186;29;20031;-93
2021/12/22 09:45:25;;;;;;;0.10;0.10;;;;;;;;;;4923664;29;20558;-90
2021/12/22 09:48:16;;;;;;;0.10;0.10;;;;;;;;;;4926107;29;20043;-89
2021/12/22 09:50:51;;;;;;;0.10;0.10;;;;;;;;;;4941893;29;20035;-89
2021/12/22 09:53:18;;;;;;;0.00;0.00;;;;;;;;;;4924024;29;20043;-91
2021/12/22 09:55:44;;;;;;;0.00;0.00;;;;;;;;;;4923175;29;20043;-91
2021/12/22 09:58:10;;;;;;;0.00;0.00;;;;;;;;;;4939033;29;20047;-90
2021/12/22 10:00:39;;;;;;;0.00;0.00;;;;;;;;;;4938912;29;20134;-91
2021/12/22 10:03:06;;;;;;;0.70;0.32;;;;;;;;;;4939048;29;20090;-91
2021/12/22 10:05:32;;;;;;;0.10;0.10;;;;;;;;;;4923472;29;20507;-91
2021/12/22 10:08:14;;;;;;;0.00;0.00;;;;;;;;;;4922999;29;20039;-90
2021/12/22 10:10:46;;;;;;;0.10;0.10;;;;;;;;;;4938956;29;20039;-91
2021/12/22 10:13:16;;;;;;;0.30;0.30;;;;;;;;;;4938754;29;20080;-90
2021/12/22 10:15:42;;;;;;;0.10;0.10;;;;;;;;;;4922886;29;20082;-92
2021/12/22 10:18:12;;;;;;;0.00;0.00;;;;;;;;;;4922932;29;20047;-91
2021/12/22 10:20:38;;;;;;;0.10;0.10;;;;;;;;;;4922418;29;20134;-93
2021/12/22 10:23:18;;;;;;;0.00;0.00;;;;;;;;;;4923516;29;20458;-91
2021/12/22 10:25:44;;;;;;;0.10;0.10;;;;;;;;;;4938230;29;20102;-93
2021/12/22 10:28:17;;;;;;;0.00;0.00;;;;;;;;;;4923951;29;20040;-91
2021/12/22 10:30:43;;;;;;;0.10;0.10;;;;;;;;;;4923519;29;20039;-93
2021/12/22 10:33:11;;;;;;;0.10;0.10;;;;;;;;;;4922557;29;20043;-91
2021/12/22 10:35:38;;;;;;;0.10;0.10;;;;;;;;;;4923382;29;20043;-91
2021/12/22 10:38:09;;;;;;;0.25;0.25;;;;;;;;;;4956044;29;20063;-93
2021/12/22 10:40:36;;;;;;;0.10;0.10;;;;;;;;;;4938914;29;20390;-92
2021/12/22 10:43:02;;;;;;;0.00;0.00;;;;;;;;;;4921995;29;20252;-90
2021/12/22 10:45:29;;;;;;;0.10;0.10;;;;;;;;;;4938166;29;20514;-89
2021/12/22 10:50:43;;;;;;;0.10;0.10;;;;;;;;;;4940097;29;20406;-91
2021/12/22 10:53:09;;;;;;;0.10;0.10;;;;;;;;;;4921608;29;20043;-89
2021/12/22 10:55:36;;;;;;;0.00;0.00;;;;;;;;;;4938192;29;20039;-93
2021/12/22 10:58:02;;;;;;;0.10;0.10;;;;;;;;;;4937807;29;20122;-92
2021/12/22 11:00:28;;;;;;;0.10;0.10;;;;;;;;;;4922680;29;20039;-90
2021/12/22 11:03:05;;;;;;;0.20;0.20;;;;;;;;;;4937630;29;20549;-90
2021/12/22 11:05:31;;;;;;;0.17;0.13;;;;;;;;;;4938169;29;20051;-90
2021/12/22 11:07:58;;;;;;;0.10;0.10;;;;;;;;;;4921997;29;20050;-90
2021/12/22 11:10:28;;;;;;;0.10;0.10;;;;;;;;;;4921739;29;20086;-88
2021/12/22 11:13:01;;;;;;;0.10;0.10;;;;;;;;;;4937370;29;20523;-88
2021/12/22 11:15:27;;;;;;;0.00;0.00;;;;;;;;;;4921802;29;20051;-86
2021/12/22 11:17:52;;;;;;;0.43;0.43;;;;;;;;;;4953327;29;20054;-88
2021/12/22 11:20:18;;;;;;;0.00;0.00;;;;;;;;;;4937502;29;20053;-88
2021/12/22 11:22:59;;;;;;;0.30;0.20;;;;;;;;;;4937552;29;20036;-89
2021/12/22 11:25:26;;;;;;;0.10;0.10;;;;;;;;;;4924643;29;20047;-93
2021/12/22 11:27:52;;;;;;;0.35;0.32;;;;;;;;;;4923984;29;20047;-93
2021/12/22 11:30:18;;;;;;;0.10;0.10;;;;;;;;;;4923600;29;20090;-93
2021/12/22 11:32:44;;;;;;;0.10;0.10;;;;;;;;;;4929704;29;20070;-92
2021/12/22 11:35:11;;;;;;;0.00;0.00;;;;;;;;;;4932505;29;20066;-93
2021/12/22 11:37:37;;;;;;;0.63;0.63;;;;;;;;;;4937567;28;20061;-93
2021/12/22 11:40:03;;;;;;;0.10;0.10;;;;;;;;;;4944096;29;20031;-93
2021/12/22 11:42:32;;;;;;;0.10;0.10;;;;;;;;;;4943319;29;20046;-93
2021/12/22 11:45:05;;;;;;;0.10;0.10;;;;;;;;;;4922960;29;20059;-96
2021/12/22 11:47:34;;;;;;;0.08;0.08;;;;;;;;;;4926149;29;20082;-95
2021/12/22 11:50:01;;;;;;;0.22;0.22;;;;;;;;;;4924531;29;20047;-95
2021/12/22 11:52:36;;;;;;;0.20;0.20;;;;;;;;;;4921991;29;20126;-91
2021/12/22 11:55:24;;;;;;;0.10;0.10;;;;;;;;;;4923077;29;20215;-96
2021/12/22 11:57:51;;;;;;;0.10;0.10;;;;;;;;;;4922992;29;20094;-94
2021/12/22 12:00:21;;;;;;;0.10;0.10;;;;;;;;;;4929254;29;20049;-96
2021/12/22 12:02:47;;;;;;;0.10;0.10;;;;;;;;;;4922547;29;20043;-96
2021/12/22 12:05:25;;;;;;;0.10;0.10;;;;;;;;;;4944037;28;20049;-96
2021/12/22 12:08:02;;;;;;;0.10;0.10;;;;;;;;;;4959241;29;20055;-95
2021/12/22 12:10:46;;;;;;;0.10;0.10;;;;;;;;;;4941338;29;20066;-95
2021/12/22 12:13:25;;;;;;;0.00;0.00;;;;;;;;;;4924315;29;20035;-96
2021/12/22 12:21:56;;;;;;;0.10;0.10;;;;;;;;;;4940110;28;20086;-93
2021/12/22 12:24:32;;;;;;;0.10;0.10;;;;;;;;;;4938360;29;20142;-94
2021/12/22 12:26:58;;;;;;;0.10;0.10;;;;;;;;;;4922880;29;20039;-93
2021/12/22 12:29:43;;;;;;;0.10;0.10;;;;;;;;;;4921578;29;20479;-94
2021/12/22 12:32:09;;;;;;;0.10;0.10;;;;;;;;;;4937109;29;20446;-94
2021/12/22 12:34:39;;;;;;;0.10;0.10;;;;;;;;;;4921148;29;20119;-94
2021/12/22 12:37:08;;;;;;;0.10;0.10;;;;;;;;;;4921647;29;20074;-94
2021/12/22 12:39:54;;;;;;;0.20;0.20;;;;;;;;;;4921377;29;20139;-95
2021/12/22 12:42:29;;;;;;;0.00;0.00;;;;;;;;;;4937623;29;20047;-96
2021/12/22 12:45:02;;;;;;;0.10;0.10;;;;;;;;;;4921673;29;20126;-96
2021/12/22 12:47:28;;;;;;;0.00;0.00;;;;;;;;;;4923402;29;20403;-96
2021/12/22 12:50:12;;;;;;;0.10;0.10;;;;;;;;;;4923180;29;20039;-96
2021/12/22 12:52:38;;;;;;;0.08;0.08;;;;;;;;;;4925200;29;20035;-96
2021/12/22 12:55:12;;;;;;;0.43;0.40;;;;;;;;;;4924037;29;20075;-94
2021/12/22 12:57:38;;;;;;;0.00;0.00;;;;;;;;;;4925578;29;20057;-93
2021/12/22 13:00:08;;;;;;;0.00;0.00;;;;;;;;;;4925616;29;20035;-96
2021/12/22 13:02:34;;;;;;;0.00;0.00;;;;;;;;;;4942151;29;20043;-96
2021/12/22 13:05:08;;;;;;;0.10;0.10;;;;;;;;;;4925460;29;20042;-93
2021/12/22 13:07:34;;;;;;;0.10;0.10;;;;;;;;;;4924678;29;20113;-93
2021/12/22 13:10:02;;;;;;;0.00;0.00;;;;;;;;;;4940393;29;20506;-94
2021/12/22 13:12:47;;;;;;;0.03;0.03;;;;;;;;;;4924113;29;20521;-93
2021/12/22 13:16:18;;;;;;;0.10;0.10;;;;;;;;;;4926863;29;20075;-95
2021/12/22 13:18:28;;;;;;;0.10;0.10;;;;;;;;;;4950347;28;20057;-94
2021/12/22 13:20:57;;;;;;;0.10;0.10;;;;;;;;;;4926687;29;20051;-95
2021/12/22 13:23:25;;;;;;;0.10;0.10;;;;;;;;;;4941363;29;20039;-93
2021/12/22 13:25:52;;;;;;;0.10;0.10;;;;;;;;;;4925962;29;20110;-92
2021/12/22 13:28:23;;;;;;;0.00;0.00;;;;;;;;;;4923246;29;20150;-92
2021/12/22 13:30:55;;;;;;;0.10;0.10;;;;;;;;;;4924195;29;20122;-92
2021/12/22 13:33:21;;;;;;;0.10;0.10;;;;;;;;;;4924891;29;20101;-93
2021/12/22 13:35:47;;;;;;;0.10;0.10;;;;;;;;;;4940027;29;20546;-92
2021/12/22 13:38:21;;;;;;;0.10;0.10;;;;;;;;;;4955794;29;20222;-91
2021/12/22 13:40:48;;;;;;;0.10;0.10;;;;;;;;;;4925712;29;20491;-95
2021/12/22 13:43:21;;;;;;;0.00;0.00;;;;;;;;;;4926369;29;20527;-94
2021/12/22 13:45:48;;;;;;;0.10;0.10;;;;;;;;;;4940001;29;20044;-93
2021/12/22 13:48:21;;;;;;;0.10;0.10;;;;;;;;;;4923561;29;20376;-94
2021/12/22 14:04:45;;;;;;;0.10;0.10;;;;;;;;;;5305670;23;20072;-95
2021/12/22 14:07:12;;;;;;;0.08;0.08;;;;;;;;;;4876578;29;20087;-96
2021/12/22 14:09:54;;;;;;;0.10;0.10;;;;;;;;;;4894547;29;20112;-94
2021/12/22 14:12:20;;;;;;;;;;;;;;;;;;4878763;29;20052;-95
2021/12/22 14:14:56;;;;;;;0.10;0.10;;;;;;;;;;4893841;29;19919;-95
2021/12/22 14:17:28;;;;;;;0.10;0.10;;;;;;;;;;4877649;29;20049;-96
2021/12/22 14:19:58;;;;;;;0.10;0.10;;;;;;;;;;4887110;29;20041;-96
2021/12/22 14:22:28;;;;;;;1.30;0.28;;;;;;;;;;4854072;29;20055;-96
2021/12/22 14:24:57;;;;;;;0.10;0.10;;;;;;;;;;4867724;29;20037;-92
2021/12/22 14:32:38;;;;;;;0.10;0.10;;;;;;;;;;5014244;23;20143;-90
2021/12/22 14:35:22;;;;;;;0.00;0.00;;;;;;;;;;4886450;29;20059;-93
2021/12/22 14:37:54;;;;;;;0.10;0.10;;;;;;;;;;4887702;29;20043;-95
2021/12/22 14:40:22;;;;;;;0.10;0.10;;;;;;;;;;4885613;29;20055;-94
2021/12/22 14:43:14;;;;;;;0.90;0.30;;;;;;;;;;4884056;29;20111;-93
2021/12/22 14:45:40;;;;;;;0.10;0.10;;;;;;;;;;4898441;29;20044;-94
2021/12/22 14:48:10;;;;;;;0.10;0.10;;;;;;;;;;4901007;29;20385;-94
2021/12/22 14:50:37;;;;;;;0.10;0.10;;;;;;;;;;4885286;29;20361;-92
2021/12/22 14:53:04;;;;;;;0.10;0.10;;;;;;;;;;4884730;29;20142;-94
2021/12/22 14:55:43;;;;;;;0.10;0.10;;;;;;;;;;4884959;29;20048;-94
2021/12/22 14:58:09;;;;;;;0.10;0.10;;;;;;;;;;4885277;29;20048;-93
2021/12/22 15:00:36;;;;;;;0.10;0.10;;;;;;;;;;4885032;29;20409;-93
2021/12/22 15:03:02;;;;;;;0.10;0.10;;;;;;;;;;4885386;29;20107;-94
2021/12/22 15:05:28;;;;;;;0.10;0.10;;;;;;;;;;4885699;29;20040;-94
2021/12/22 15:07:54;;;;;;;0.10;0.10;;;;;;;;;;4884654;29;20047;-93
2021/12/22 15:10:20;;;;;;;0.17;0.17;;;;;;;;;;4885632;29;20559;-94
2021/12/22 15:12:46;;;;;;;0.10;0.10;;;;;;;;;;4885826;29;20061;-93
2021/12/22 15:15:13;;;;;;;0.15;0.15;;;;;;;;;;4887004;29;20150;-93
2021/12/22 15:17:39;;;;;;;0.10;0.10;;;;;;;;;;4885762;29;20047;-94
2021/12/22 15:20:05;;;;;;;0.10;0.10;;;;;;;;;;4884780;29;20469;-94
2021/12/22 15:22:31;;;;;;;0.30;0.30;;;;;;;;;;4884768;29;20040;-94
2021/12/22 15:24:57;;;;;;;0.10;0.10;;;;;;;;;;4884902;29;20103;-93